Time;durP1;ratioP1;P1;durP2;ratioP2;P2;SDS_P1;SDS_P2;PMS_P1;PMS_P2;Temp;Humidity;BMP_temperature;BMP_pressure;BME280_temperature;BME280_humidity;BME280_pressure;Samples;Min_cycle;Max_cycle;Signal;HPM_P1;HPM_P2
2022/11/16 00:02:08;;;;;;;9.70;4.40;;;11.40;99.90;;;;;;5052773;28;20029;-73
2022/11/16 00:04:34;;;;;;;6.70;4.10;;;11.50;99.90;;;;;;5052761;28;20047;-73
2022/11/16 00:07:01;;;;;;;7.10;4.72;;;11.50;99.90;;;;;;5052764;28;20025;-74
2022/11/16 00:09:31;;;;;;;8.45;4.35;;;11.50;99.90;;;;;;5052751;28;20104;-74
2022/11/16 00:11:58;;;;;;;8.35;4.78;;;11.50;99.90;;;;;;5052694;28;20112;-74
2022/11/16 00:14:27;;;;;;;9.95;4.95;;;11.50;99.90;;;;;;5052545;28;20035;-73
2022/11/16 00:16:52;;;;;;;9.30;4.50;;;11.50;99.90;;;;;;5052658;28;20025;-74
2022/11/16 00:19:18;;;;;;;8.63;4.43;;;11.50;99.90;;;;;;5034827;28;20361;-73
2022/11/16 00:21:44;;;;;;;6.50;4.10;;;11.50;99.90;;;;;;5034785;28;20017;-73
2022/11/16 00:24:17;;;;;;;6.70;3.90;;;11.50;99.90;;;;;;5034628;28;20017;-73
2022/11/16 00:26:44;;;;;;;7.10;4.00;;;11.50;99.90;;;;;;5053167;28;20049;-75
2022/11/16 00:29:24;;;;;;;6.13;4.10;;;11.50;99.90;;;;;;5052519;28;20053;-73
2022/11/16 00:31:50;;;;;;;6.53;3.97;;;11.50;99.90;;;;;;5037591;28;20067;-74
2022/11/16 00:34:16;;;;;;;6.35;3.88;;;11.50;99.90;;;;;;5056137;28;20021;-73
2022/11/16 00:36:42;;;;;;;7.38;4.38;;;11.50;99.90;;;;;;5038323;28;20025;-74
2022/11/16 00:39:11;;;;;;;5.45;3.80;;;11.50;99.90;;;;;;5039480;28;20468;-74
2022/11/16 00:41:36;;;;;;;6.43;3.88;;;11.60;99.90;;;;;;5038227;28;20017;-74
2022/11/16 00:44:02;;;;;;;6.88;4.25;;;11.60;99.90;;;;;;5056057;28;20040;-74
2022/11/16 00:46:27;;;;;;;9.05;4.15;;;11.50;99.90;;;;;;5056009;28;20025;-74
2022/11/16 00:48:53;;;;;;;7.93;4.18;;;11.60;99.90;;;;;;5056586;28;20032;-74
2022/11/16 00:51:18;;;;;;;9.55;4.53;;;11.60;99.90;;;;;;5055986;28;20021;-74
2022/11/16 00:53:44;;;;;;;8.55;3.83;;;11.50;99.90;;;;;;5055908;28;20021;-74
2022/11/16 00:56:09;;;;;;;5.70;4.25;;;11.60;99.90;;;;;;5055697;28;20443;-74
2022/11/16 00:58:35;;;;;;;7.50;3.83;;;11.50;99.90;;;;;;5037941;28;20384;-74
2022/11/16 01:01:05;;;;;;;9.57;5.00;;;11.50;99.90;;;;;;5055744;28;20472;-74
2022/11/16 01:03:32;;;;;;;7.93;4.00;;;11.50;99.90;;;;;;5055664;28;20061;-74
2022/11/16 01:06:06;;;;;;;7.20;4.57;;;11.50;99.90;;;;;;5037738;28;20074;-74
2022/11/16 01:08:34;;;;;;;9.10;4.45;;;11.50;99.90;;;;;;5055609;28;20039;-74
2022/11/16 01:12:07;;;;;;;6.50;4.18;;;11.50;99.90;;;;;;5037703;28;20511;-74
2022/11/16 01:13:48;;;;;;;6.47;4.10;;;11.60;99.90;;;;;;5055323;28;20033;-74
2022/11/16 01:16:18;;;;;;;5.55;4.13;;;11.30;99.90;;;;;;5037446;28;20067;-74
2022/11/16 01:18:47;;;;;;;6.55;4.53;;;11.60;99.90;;;;;;5055483;28;20024;-74
2022/11/16 01:21:13;;;;;;;5.90;3.45;;;11.60;99.90;;;;;;5037608;28;20025;-74
2022/11/16 01:23:39;;;;;;;6.15;3.97;;;11.60;99.90;;;;;;5055340;28;20048;-74
2022/11/16 01:26:04;;;;;;;7.35;4.18;;;11.80;99.90;;;;;;5055269;28;20060;-74
2022/11/16 01:28:30;;;;;;;4.75;3.40;;;11.60;99.90;;;;;;5055302;28;20109;-74
2022/11/16 01:30:56;;;;;;;6.57;3.78;;;11.60;99.90;;;;;;5055188;28;20041;-74
2022/11/16 01:33:22;;;;;;;8.10;4.10;;;11.60;99.90;;;;;;5055180;28;20033;-74
2022/11/16 01:35:48;;;;;;;8.70;4.00;;;11.60;99.90;;;;;;5055034;28;20150;-74
2022/11/16 01:38:13;;;;;;;7.20;4.43;;;11.60;99.90;;;;;;5055086;28;20017;-74
2022/11/16 01:40:39;;;;;;;6.97;4.45;;;11.60;99.90;;;;;;5055657;28;20460;-74
2022/11/16 01:43:16;;;;;;;7.40;3.97;;;11.60;99.90;;;;;;5036306;28;20499;-74
2022/11/16 01:45:42;;;;;;;5.97;4.18;;;11.60;99.90;;;;;;5054892;28;20037;-74
2022/11/16 01:48:12;;;;;;;9.20;4.65;;;11.60;99.90;;;;;;5037067;28;20029;-74
2022/11/16 01:50:38;;;;;;;9.13;4.65;;;11.60;99.90;;;;;;5036858;28;20056;-74
2022/11/16 01:53:05;;;;;;;9.00;3.95;;;11.60;99.90;;;;;;5036966;28;20021;-74
2022/11/16 01:55:33;;;;;;;6.45;3.40;;;11.60;99.90;;;;;;5054638;28;20032;-74
2022/11/16 01:58:00;;;;;;;9.83;4.73;;;11.60;99.90;;;;;;5054775;28;20047;-74
2022/11/16 02:00:25;;;;;;;6.50;4.28;;;11.60;99.90;;;;;;5054664;28;20027;-74
2022/11/16 02:02:51;;;;;;;6.15;4.05;;;11.60;99.90;;;;;;5054503;28;20036;-74
2022/11/16 02:05:21;;;;;;;7.65;4.05;;;11.60;99.90;;;;;;5036656;28;20435;-74
2022/11/16 02:11:19;;;;;;;6.97;4.45;;;14.90;99.90;;;;;;5054586;28;20040;-74
2022/11/16 02:13:44;;;;;;;;;;;11.60;99.90;;;;;;5054844;28;20104;-74
2022/11/16 02:16:17;;;;;;;9.90;4.30;;;11.60;99.90;;;;;;5054244;28;20058;-74
2022/11/16 02:18:46;;;;;;;7.50;4.38;;;11.60;99.90;;;;;;5054963;28;20464;-74
2022/11/16 02:21:25;;;;;;;7.47;4.53;;;13.00;99.90;;;;;;5036417;28;20033;-74
2022/11/16 02:24:13;;;;;;;7.72;4.32;;;11.60;99.90;;;;;;5054214;28;20021;-74
2022/11/16 02:27:06;;;;;;;11.70;4.85;;;11.60;99.90;;;;;;5036316;28;20029;-74
2022/11/16 02:29:35;;;;;;;8.05;5.03;;;11.60;99.90;;;;;;5036224;28;20033;-74
2022/11/16 02:32:21;;;;;;;6.68;4.90;;;11.60;99.90;;;;;;5054641;28;20054;-74
2022/11/16 02:34:53;;;;;;;6.13;4.30;;;11.60;99.90;;;;;;5053855;28;20056;-73
2022/11/16 02:37:21;;;;;;;7.30;5.07;;;11.60;99.90;;;;;;5036098;28;20017;-73
2022/11/16 02:39:51;;;;;;;7.68;4.57;;;11.60;99.90;;;;;;5053931;28;20025;-73
2022/11/16 02:42:25;;;;;;;8.70;4.70;;;11.60;99.90;;;;;;5053809;28;20035;-74
2022/11/16 02:44:53;;;;;;;6.75;4.35;;;11.60;99.90;;;;;;5053795;28;20025;-74
2022/11/16 02:47:23;;;;;;;7.18;4.97;;;11.60;99.90;;;;;;5053750;28;20104;-72
2022/11/16 02:49:58;;;;;;;7.22;5.00;;;11.60;99.90;;;;;;5054312;28;20028;-73
2022/11/16 02:52:25;;;;;;;8.45;5.05;;;11.60;99.90;;;;;;5035814;28;20020;-73
2022/11/16 02:54:51;;;;;;;13.23;5.55;;;11.60;99.90;;;;;;5053463;28;20021;-73
2022/11/16 02:57:41;;;;;;;7.32;5.00;;;11.60;99.90;;;;;;5053564;28;20362;-73
2022/11/16 03:00:09;;;;;;;7.78;4.85;;;11.60;99.90;;;;;;5035636;28;20032;-74
2022/11/16 03:03:17;;;;;;;8.73;5.47;;;11.60;99.90;;;;;;5053354;28;20487;-74
2022/11/16 03:06:00;;;;;;;9.10;4.93;;;11.60;99.90;;;;;;4953362;28;20459;-73
2022/11/16 03:08:29;;;;;;;9.93;5.97;;;11.60;99.90;;;;;;4954103;29;20154;-73
2022/11/16 03:13:47;;;;;;;9.23;5.30;;;11.60;99.90;;;;;;5054205;28;20031;-73
2022/11/16 03:16:37;;;;;;;8.82;5.65;;;11.60;99.90;;;;;;5053245;28;20079;-73
2022/11/16 03:19:06;;;;;;;7.82;5.32;;;11.60;99.90;;;;;;5035505;28;20044;-73
2022/11/16 03:21:56;;;;;;;10.18;6.22;;;11.60;99.90;;;;;;5053283;28;20056;-73
2022/11/16 03:24:22;;;;;;;9.60;5.18;;;11.60;99.90;;;;;;5052340;28;20116;-73
2022/11/16 03:27:09;;;;;;;10.52;4.95;;;11.50;99.90;;;;;;5053239;28;20167;-73
2022/11/16 03:29:52;;;;;;;8.07;5.07;;;11.50;99.90;;;;;;5035226;28;20025;-73
2022/11/16 03:32:38;;;;;;;7.63;4.65;;;11.60;99.90;;;;;;5035372;28;20028;-73
2022/11/16 03:35:18;;;;;;;8.13;5.65;;;11.60;99.90;;;;;;5035114;28;20040;-73
2022/11/16 03:37:50;;;;;;;10.18;5.88;;;11.50;99.90;;;;;;5053060;28;20021;-73
2022/11/16 03:40:18;;;;;;;8.23;4.50;;;11.50;99.90;;;;;;5052986;28;20210;-73
2022/11/16 03:42:45;;;;;;;8.00;4.68;;;11.50;99.90;;;;;;5053279;28;20062;-73
2022/11/16 03:45:12;;;;;;;7.95;5.15;;;11.50;99.90;;;;;;5035088;28;20524;-73
2022/11/16 03:47:40;;;;;;;11.90;5.30;;;11.40;99.90;;;;;;5052910;28;20108;-73
2022/11/16 03:50:06;;;;;;;9.20;4.70;;;11.40;99.90;;;;;;5052966;28;20023;-73
2022/11/16 03:52:32;;;;;;;7.28;4.97;;;;;;;;;;5052943;28;20083;-74
2022/11/16 03:54:58;;;;;;;6.97;4.15;;;11.40;99.90;;;;;;5052736;28;20033;-74
2022/11/16 03:57:23;;;;;;;9.18;4.68;;;11.40;99.90;;;;;;5034947;28;20116;-74
2022/11/16 03:59:49;;;;;;;10.02;4.78;;;;;;;;;;5035017;28;20021;-74
2022/11/16 04:02:15;;;;;;;7.47;3.70;;;11.30;99.90;;;;;;5061796;22;20040;-77
2022/11/16 04:24:13;;;;;;;5.20;2.50;;;11.10;99.90;;;;;;5057325;28;20514;-78
2022/11/16 04:29:29;;;;;;;4.55;2.30;;;11.00;99.90;;;;;;5057966;28;20514;-78
2022/11/16 04:40:09;;;;;;;7.82;2.08;;;11.00;99.90;;;;;;5057233;28;20047;-77
2022/11/16 04:42:37;;;;;;;5.15;2.10;;;10.90;99.90;;;;;;5056911;28;20434;-78
2022/11/16 04:47:48;;;;;;;6.20;2.72;;;10.90;99.90;;;;;;5057318;28;20102;-77
2022/11/16 04:50:14;;;;;;;5.18;1.70;;;10.90;99.90;;;;;;5056800;28;20032;-78
2022/11/16 04:52:40;;;;;;;4.57;2.08;;;11.00;99.90;;;;;;5039002;28;20025;-78
2022/11/16 04:55:06;;;;;;;3.55;2.17;;;10.90;99.90;;;;;;5057064;28;20411;-78
2022/11/16 04:57:31;;;;;;;7.95;2.15;;;10.90;99.90;;;;;;5038761;28;20052;-78
2022/11/16 04:59:57;;;;;;;4.68;1.98;;;10.80;99.90;;;;;;5056844;28;20032;-78
2022/11/16 05:02:22;;;;;;;5.32;1.90;;;10.90;99.90;;;;;;5056378;28;20033;-78
2022/11/16 05:04:48;;;;;;;7.65;2.65;;;10.80;99.90;;;;;;5038595;28;20537;-78
2022/11/16 05:07:14;;;;;;;6.32;2.53;;;10.80;99.90;;;;;;5056339;28;20112;-78
2022/11/16 05:09:41;;;;;;;4.38;2.15;;;10.80;99.90;;;;;;5056304;28;20025;-76
2022/11/16 05:12:09;;;;;;;7.28;2.70;;;10.80;99.90;;;;;;5056195;28;20039;-77
2022/11/16 05:14:35;;;;;;;8.18;2.78;;;10.80;99.90;;;;;;5055552;28;20037;-76
2022/11/16 05:17:00;;;;;;;5.10;1.80;;;10.80;99.90;;;;;;5054786;28;20032;-76
2022/11/16 05:22:10;;;;;;;7.22;2.63;;;10.70;99.90;;;;;;5055897;28;20075;-77
2022/11/16 05:24:35;;;;;;;5.30;2.20;;;10.70;99.90;;;;;;5037582;28;20029;-77
2022/11/16 05:27:03;;;;;;;6.60;2.20;;;11.30;99.90;;;;;;5055457;28;20059;-77
2022/11/16 05:29:29;;;;;;;6.78;3.33;;;10.70;99.90;;;;;;5055249;28;20071;-76
2022/11/16 05:31:55;;;;;;;6.40;2.63;;;10.70;99.90;;;;;;5037511;28;20029;-76
2022/11/16 05:34:20;;;;;;;4.32;2.45;;;10.60;99.90;;;;;;5037289;28;20021;-76
2022/11/16 05:36:46;;;;;;;9.95;3.45;;;10.60;99.90;;;;;;5055285;28;20059;-76
2022/11/16 05:39:11;;;;;;;5.30;2.97;;;10.60;99.90;;;;;;5055142;28;20023;-76
2022/11/16 05:41:37;;;;;;;6.28;2.95;;;10.60;99.90;;;;;;5055197;28;20017;-76
2022/11/16 05:44:03;;;;;;;6.70;2.80;;;10.60;99.90;;;;;;5055038;28;20024;-76
2022/11/16 05:46:28;;;;;;;6.30;3.40;;;10.60;99.90;;;;;;5055421;28;20432;-76
2022/11/16 05:48:54;;;;;;;10.20;3.65;;;10.60;99.90;;;;;;5037209;28;20068;-76
2022/11/16 05:51:20;;;;;;;10.38;3.05;;;10.60;99.90;;;;;;5055106;28;20025;-77
2022/11/16 05:53:48;;;;;;;8.60;3.17;;;10.60;99.90;;;;;;5037147;28;20032;-75
2022/11/16 05:56:14;;;;;;;7.32;3.10;;;10.70;99.90;;;;;;5054699;28;20032;-75
2022/11/16 05:58:40;;;;;;;10.55;3.97;;;10.60;99.90;;;;;;5054732;28;20024;-74
2022/11/16 06:01:06;;;;;;;8.63;3.20;;;10.60;99.90;;;;;;5054769;28;20025;-75
2022/11/16 06:03:31;;;;;;;7.63;3.63;;;10.60;99.90;;;;;;5054676;28;20037;-75
2022/11/16 06:05:57;;;;;;;7.22;3.45;;;10.50;99.90;;;;;;5054565;28;20033;-75
2022/11/16 06:08:23;;;;;;;6.03;3.03;;;10.40;99.90;;;;;;5054566;28;20100;-76
2022/11/16 06:10:49;;;;;;;7.40;3.00;;;10.40;99.90;;;;;;5036715;28;20029;-75
2022/11/16 06:13:15;;;;;;;6.82;3.30;;;10.60;99.90;;;;;;5036654;28;20025;-75
2022/11/16 06:15:41;;;;;;;6.30;2.60;;;10.40;99.90;;;;;;5036496;28;20048;-75
2022/11/16 06:18:06;;;;;;;7.32;3.17;;;10.30;99.90;;;;;;5054916;28;20025;-75
2022/11/16 06:20:33;;;;;;;9.75;3.08;;;10.30;99.90;;;;;;5036483;28;20119;-75
2022/11/16 06:22:59;;;;;;;7.28;3.45;;;10.50;99.90;;;;;;5054309;28;20032;-75
2022/11/16 06:25:24;;;;;;;6.15;2.85;;;10.20;99.90;;;;;;5054542;28;20028;-75
2022/11/16 06:27:50;;;;;;;7.35;3.13;;;10.20;99.90;;;;;;5036268;28;20472;-75
2022/11/16 06:30:16;;;;;;;18.10;2.53;;;10.10;99.90;;;;;;5054528;28;20027;-74
2022/11/16 06:32:44;;;;;;;5.07;2.25;;;10.10;99.90;;;;;;5036239;28;20112;-75
2022/11/16 06:35:10;;;;;;;6.40;2.47;;;10.00;99.90;;;;;;5053968;28;20028;-75
2022/11/16 06:37:35;;;;;;;8.60;2.20;;;11.10;99.90;;;;;;5036143;28;20025;-75
2022/11/16 06:40:01;;;;;;;7.80;2.53;;;10.50;99.90;;;;;;5053983;28;20100;-76
2022/11/16 06:42:26;;;;;;;10.20;3.05;;;9.90;99.90;;;;;;5053996;28;20049;-76
2022/11/16 06:44:52;;;;;;;9.27;2.70;;;10.60;99.90;;;;;;5053931;28;20036;-75
2022/11/16 06:47:17;;;;;;;9.93;3.70;;;9.80;99.90;;;;;;5053722;28;20488;-76
2022/11/16 06:49:43;;;;;;;7.43;2.80;;;9.80;99.90;;;;;;5054200;28;20029;-76
2022/11/16 06:52:08;;;;;;;8.43;3.13;;;9.80;99.90;;;;;;5054137;28;20025;-76
2022/11/16 06:54:34;;;;;;;7.53;2.40;;;9.70;99.90;;;;;;5053839;28;20025;-76
2022/11/16 06:57:05;;;;;;;10.10;2.60;;;9.70;99.90;;;;;;5053333;28;20557;-75
2022/11/16 06:59:31;;;;;;;6.63;2.30;;;9.60;99.90;;;;;;5035420;28;20384;-75
2022/11/16 07:01:57;;;;;;;8.90;3.10;;;9.50;99.90;;;;;;5053585;28;20040;-75
2022/11/16 07:04:22;;;;;;;7.78;2.97;;;9.40;99.90;;;;;;5035502;28;20033;-76
2022/11/16 07:06:48;;;;;;;6.78;3.20;;;9.50;99.90;;;;;;5054008;28;20423;-76
2022/11/16 07:09:14;;;;;;;10.93;2.65;;;9.50;99.90;;;;;;5053359;28;20017;-76
2022/11/16 07:11:40;;;;;;;8.15;2.10;;;9.40;99.90;;;;;;5053263;28;20071;-76
2022/11/16 07:14:06;;;;;;;7.68;2.95;;;;;;;;;;5053460;28;20029;-76
2022/11/16 07:16:37;;;;;;;8.30;2.05;;;9.30;99.90;;;;;;5053901;28;20411;-75
2022/11/16 07:19:03;;;;;;;8.20;2.65;;;9.30;99.90;;;;;;5035464;28;20040;-76
2022/11/16 07:21:30;;;;;;;8.05;1.67;;;9.20;99.90;;;;;;5035357;28;20406;-76
2022/11/16 07:23:56;;;;;;;8.27;2.70;;;9.20;99.90;;;;;;5053318;28;20495;-76
2022/11/16 07:26:22;;;;;;;6.35;2.45;;;9.20;99.90;;;;;;5052949;28;20045;-75
2022/11/16 07:28:47;;;;;;;8.23;2.17;;;9.20;99.90;;;;;;5035463;28;20494;-77
2022/11/16 07:31:14;;;;;;;4.95;2.08;;;9.10;99.90;;;;;;5053533;28;20033;-77
2022/11/16 07:33:40;;;;;;;7.45;2.70;;;9.20;99.90;;;;;;5035706;28;20017;-77
2022/11/16 07:36:08;;;;;;;8.10;2.45;;;9.20;99.90;;;;;;5035215;28;20190;-77
2022/11/16 07:38:37;;;;;;;6.35;1.55;;;9.30;99.90;;;;;;5053114;28;20020;-76
2022/11/16 07:41:11;;;;;;;8.05;2.22;;;9.20;99.90;;;;;;5052419;28;20182;-76
2022/11/16 07:43:36;;;;;;;8.15;1.63;;;12.30;99.90;;;;;;5035371;28;20024;-77
2022/11/16 07:46:03;;;;;;;8.85;0.80;;;9.20;99.90;;;;;;5035850;28;20033;-76
2022/11/16 07:48:30;;;;;;;5.60;1.08;;;9.20;99.90;;;;;;5053203;28;20025;-77
2022/11/16 07:51:16;;;;;;;6.85;1.50;;;9.30;99.90;;;;;;5035480;28;20498;-77
2022/11/16 07:53:42;;;;;;;2.65;0.95;;;9.30;99.90;;;;;;5053262;28;20032;-77
2022/11/16 07:56:09;;;;;;;8.02;1.77;;;9.30;99.90;;;;;;5052857;28;20494;-76
2022/11/16 07:58:36;;;;;;;2.05;0.47;;;9.40;99.90;;;;;;5052952;28;20029;-77
2022/11/16 08:01:19;;;;;;;9.32;0.65;;;9.30;99.90;;;;;;5052973;28;20112;-77
2022/11/16 08:03:45;;;;;;;4.15;0.70;;;9.40;99.90;;;;;;5053609;28;20032;-77
2022/11/16 08:06:14;;;;;;;5.28;1.02;;;9.40;99.90;;;;;;5052929;28;20498;-77
2022/11/16 08:08:39;;;;;;;2.60;0.63;;;9.40;99.90;;;;;;5052922;28;20388;-77
2022/11/16 08:11:10;;;;;;;3.53;0.68;;;9.50;99.90;;;;;;5053434;28;20036;-77
2022/11/16 08:13:40;;;;;;;4.72;1.20;;;9.60;99.90;;;;;;5035059;28;20387;-77
2022/11/16 08:16:17;;;;;;;5.03;1.10;;;9.60;99.90;;;;;;5052593;28;20029;-77
2022/11/16 08:18:44;;;;;;;4.90;1.75;;;;;;;;;;5052853;28;20032;-77
2022/11/16 08:21:12;;;;;;;6.30;0.75;;;9.60;99.90;;;;;;5035002;28;20086;-77
2022/11/16 08:23:41;;;;;;;1.27;0.43;;;9.60;99.90;;;;;;5034867;28;20017;-77
2022/11/16 08:26:20;;;;;;;4.57;0.75;;;9.60;99.90;;;;;;5034826;28;20025;-77
2022/11/16 08:28:49;;;;;;;5.93;0.52;;;9.70;99.90;;;;;;5052719;28;20021;-77
2022/11/16 08:31:16;;;;;;;;;;;9.70;99.90;;;;;;5053132;28;20025;-77
2022/11/16 08:33:42;;;;;;;11.38;0.68;;;9.70;99.90;;;;;;5052743;28;20386;-77
2022/11/16 08:36:11;;;;;;;2.90;0.82;;;9.70;99.90;;;;;;5052590;28;20025;-77
2022/11/16 08:38:37;;;;;;;6.40;0.28;;;9.80;99.90;;;;;;5034822;28;20021;-77
2022/11/16 08:41:03;;;;;;;8.15;1.00;;;9.80;99.90;;;;;;5034761;28;20017;-77
2022/11/16 08:43:29;;;;;;;3.83;0.70;;;9.90;99.90;;;;;;5053076;28;20096;-77
2022/11/16 08:45:56;;;;;;;4.10;0.50;;;9.90;99.90;;;;;;5052456;28;20021;-77
2022/11/16 08:48:21;;;;;;;5.13;0.50;;;10.40;99.90;;;;;;5052646;28;20029;-77
2022/11/16 08:50:47;;;;;;;4.63;0.75;;;9.90;99.90;;;;;;5052654;28;20104;-76
2022/11/16 08:53:15;;;;;;;2.40;0.30;;;10.00;99.90;;;;;;5055887;28;20438;-77
2022/11/16 08:55:42;;;;;;;6.38;0.65;;;10.00;99.90;;;;;;5055992;28;20035;-77
2022/11/16 08:58:08;;;;;;;11.02;0.45;;;10.00;99.90;;;;;;5056515;28;20024;-77
2022/11/16 09:00:34;;;;;;;6.53;0.85;;;10.10;99.90;;;;;;5055932;28;20383;-77
2022/11/16 09:02:59;;;;;;;5.38;0.43;;;10.10;99.90;;;;;;5055904;28;20116;-77
2022/11/16 09:05:25;;;;;;;3.70;0.40;;;10.10;99.90;;;;;;5055865;28;20106;-77
2022/11/16 09:07:51;;;;;;;5.45;0.77;;;10.20;99.90;;;;;;5055925;28;20029;-77
2022/11/16 09:10:21;;;;;;;8.20;0.63;;;;;;;;;;5037790;28;20028;-77
2022/11/16 09:12:47;;;;;;;6.35;0.90;;;10.30;99.90;;;;;;5037967;28;20021;-77
2022/11/16 09:15:13;;;;;;;7.85;0.60;;;10.40;99.90;;;;;;5037804;28;20037;-77
2022/11/16 09:17:38;;;;;;;3.30;0.82;;;11.10;99.90;;;;;;5037892;28;20115;-77
2022/11/16 09:20:10;;;;;;;4.95;0.75;;;10.60;99.90;;;;;;5037968;28;20044;-77
2022/11/16 09:22:35;;;;;;;8.02;1.73;;;10.60;99.90;;;;;;5055656;28;20495;-77
2022/11/16 09:25:01;;;;;;;5.00;1.05;;;10.60;99.90;;;;;;5055503;28;20021;-77
2022/11/16 09:27:27;;;;;;;6.93;0.90;;;10.50;99.90;;;;;;5037691;28;20120;-77
2022/11/16 09:29:52;;;;;;;3.60;0.85;;;10.50;99.90;;;;;;5055455;28;20078;-76
2022/11/16 09:32:18;;;;;;;4.10;0.80;;;10.50;99.90;;;;;;5037772;28;20389;-77
2022/11/16 09:34:43;;;;;;;5.75;1.20;;;10.50;99.90;;;;;;5055248;28;20463;-76
2022/11/16 09:37:09;;;;;;;4.22;0.77;;;10.50;99.90;;;;;;5037508;28;20048;-77
2022/11/16 09:39:34;;;;;;;13.18;1.27;;;10.40;99.90;;;;;;5037554;28;20017;-77
2022/11/16 09:42:28;;;;;;;4.85;0.93;;;10.50;99.90;;;;;;5037495;28;20009;-77
2022/11/16 09:45:18;;;;;;;7.53;1.27;;;10.50;99.90;;;;;;5037334;28;20020;-77
2022/11/16 09:47:56;;;;;;;5.32;0.85;;;10.60;99.90;;;;;;5037408;28;20032;-77
2022/11/16 09:50:45;;;;;;;3.40;0.63;;;10.60;99.90;;;;;;5055151;28;20025;-77
2022/11/16 09:53:27;;;;;;;9.15;1.52;;;10.70;99.90;;;;;;5055069;28;20029;-77
2022/11/16 09:55:57;;;;;;;4.97;0.65;;;10.70;99.90;;;;;;5036957;28;20029;-77
2022/11/16 09:58:47;;;;;;;6.28;0.95;;;10.80;99.90;;;;;;5054941;28;20029;-76
2022/11/16 10:01:27;;;;;;;10.95;1.55;;;10.80;99.90;;;;;;5054621;28;20025;-76
2022/11/16 10:04:18;;;;;;;4.45;0.20;;;11.00;99.90;;;;;;5036445;28;20033;-76
2022/11/16 10:07:05;;;;;;;2.72;0.10;;;11.10;99.90;;;;;;5054673;28;20029;-77
2022/11/16 10:09:31;;;;;;;13.10;1.30;;;11.10;99.90;;;;;;5036871;28;20052;-76
2022/11/16 10:12:26;;;;;;;10.10;0.20;;;11.20;99.90;;;;;;5036713;28;20025;-77
2022/11/16 10:15:19;;;;;;;6.95;0.57;;;11.20;99.90;;;;;;5053782;28;20073;-77
2022/11/16 10:18:23;;;;;;;8.15;0.55;;;11.30;99.90;;;;;;5054556;28;20070;-76
2022/11/16 10:20:55;;;;;;;5.35;0.68;;;11.30;99.90;;;;;;5054706;28;20407;-77
2022/11/16 10:23:24;;;;;;;4.85;0.88;;;11.30;99.90;;;;;;5036505;28;20025;-77
2022/11/16 10:26:14;;;;;;;5.63;0.20;;;11.40;99.90;;;;;;5054382;28;20025;-77
2022/11/16 10:28:54;;;;;;;5.78;0.65;;;11.90;99.90;;;;;;5035793;28;20037;-76
2022/11/16 10:31:57;;;;;;;7.03;0.85;;;11.40;99.90;;;;;;5054307;28;20078;-77
2022/11/16 10:34:41;;;;;;;6.75;0.57;;;11.40;99.90;;;;;;5053940;28;20072;-77
2022/11/16 10:37:09;;;;;;;5.88;0.40;;;11.50;99.90;;;;;;5054073;28;20096;-77
2022/11/16 10:39:39;;;;;;;3.10;0.20;;;11.60;99.90;;;;;;5036276;28;20044;-77
2022/11/16 10:42:10;;;;;;;1.95;0.10;;;11.50;99.90;;;;;;5054619;28;20032;-77
2022/11/16 10:44:52;;;;;;;4.70;0.20;;;11.60;99.90;;;;;;5053879;28;20044;-76
2022/11/16 10:47:35;;;;;;;7.30;0.10;;;11.60;99.90;;;;;;5053949;28;20032;-77
2022/11/16 10:50:30;;;;;;;4.88;0.10;;;11.60;99.90;;;;;;5036035;28;20468;-76
2022/11/16 10:52:57;;;;;;;6.03;0.95;;;11.70;99.90;;;;;;5053883;28;20018;-76
2022/11/16 10:55:23;;;;;;;4.35;0.60;;;11.70;99.90;;;;;;5053714;28;20029;-76
2022/11/16 10:57:59;;;;;;;2.65;0.47;;;11.70;99.90;;;;;;5035945;28;20067;-77
2022/11/16 11:00:38;;;;;;;2.88;0.45;;;11.80;99.90;;;;;;5035801;28;20029;-77
2022/11/16 11:03:05;;;;;;;2.42;0.30;;;11.80;99.90;;;;;;5035743;28;20086;-77
2022/11/16 11:05:30;;;;;;;8.88;0.65;;;11.70;99.90;;;;;;5035562;28;20472;-77
2022/11/16 11:08:01;;;;;;;6.30;0.15;;;11.70;99.90;;;;;;5053548;28;20035;-76
2022/11/16 11:10:31;;;;;;;5.30;0.65;;;11.80;99.90;;;;;;5053590;28;20052;-76
2022/11/16 11:13:05;;;;;;;5.45;0.13;;;11.80;99.90;;;;;;5035737;28;20103;-77
2022/11/16 11:15:31;;;;;;;10.70;0.52;;;11.90;99.90;;;;;;5052369;28;20029;-76
2022/11/16 11:18:18;;;;;;;6.60;0.10;;;12.00;99.90;;;;;;5035553;28;20544;-77
2022/11/16 11:20:47;;;;;;;3.70;0.10;;;12.10;99.90;;;;;;5053410;28;20021;-76
2022/11/16 11:23:16;;;;;;;4.07;0.60;;;12.10;99.90;;;;;;5053573;28;20017;-77
2022/11/16 11:25:57;;;;;;;6.18;0.22;;;12.20;99.90;;;;;;5035440;28;20024;-77
2022/11/16 11:28:31;;;;;;;4.80;0.55;;;12.10;99.90;;;;;;5035330;28;20040;-77
2022/11/16 11:31:21;;;;;;;6.50;0.63;;;12.40;99.90;;;;;;5053464;28;20025;-77
2022/11/16 11:33:58;;;;;;;4.03;0.80;;;12.40;99.90;;;;;;5053213;28;20017;-76
2022/11/16 11:36:32;;;;;;;3.65;0.52;;;12.40;99.90;;;;;;5035247;28;20427;-76
2022/11/16 11:39:12;;;;;;;5.93;0.55;;;12.50;99.90;;;;;;5035466;28;20017;-76
2022/11/16 11:41:58;;;;;;;7.80;0.20;;;12.50;99.90;;;;;;5035395;28;20036;-77
2022/11/16 11:44:53;;;;;;;3.33;0.20;;;12.70;99.90;;;;;;5053629;28;20027;-77
2022/11/16 11:47:47;;;;;;;8.05;0.20;;;12.80;99.90;;;;;;5042977;28;20071;-77
2022/11/16 11:50:13;;;;;;;3.40;0.30;;;12.90;99.90;;;;;;5053098;28;20472;-77
2022/11/16 11:52:49;;;;;;;2.08;0.32;;;13.00;99.90;;;;;;5052893;28;20108;-77
2022/11/16 11:55:16;;;;;;;4.35;0.00;;;13.00;99.90;;;;;;5053453;28;20410;-77
2022/11/16 11:57:46;;;;;;;5.63;0.20;;;13.00;99.90;;;;;;5053210;28;20025;-77
2022/11/16 12:00:13;;;;;;;4.90;0.10;;;13.20;99.90;;;;;;5052883;28;20021;-77
2022/11/16 12:03:00;;;;;;;1.95;0.28;;;12.80;99.90;;;;;;5052746;28;20033;-77
2022/11/16 12:05:41;;;;;;;5.38;0.00;;;12.50;99.90;;;;;;5052754;28;20126;-76
2022/11/16 12:08:47;;;;;;;7.38;1.30;;;12.50;99.90;;;;;;5035004;28;20025;-75
2022/11/16 12:11:48;;;;;;;4.45;0.47;;;12.40;99.90;;;;;;5048632;28;20041;-76
2022/11/16 12:14:20;;;;;;;1.42;0.00;;;12.20;99.90;;;;;;5034884;28;20047;-76
2022/11/16 12:17:22;;;;;;;2.65;0.00;;;12.20;99.90;;;;;;5053094;28;20025;-76
2022/11/16 12:19:57;;;;;;;5.35;0.30;;;12.20;99.90;;;;;;5004736;28;20061;-75
2022/11/16 12:22:56;;;;;;;1.60;0.32;;;12.30;99.90;;;;;;5034873;28;20029;-75
2022/11/16 12:25:29;;;;;;;5.60;0.00;;;12.30;99.90;;;;;;5052430;28;20128;-75
2022/11/16 12:28:16;;;;;;;6.18;0.00;;;12.40;99.90;;;;;;5055660;28;20100;-75
2022/11/16 12:31:10;;;;;;;11.00;1.10;;;12.50;99.90;;;;;;5057038;28;20028;-75
2022/11/16 12:33:56;;;;;;;7.32;0.10;;;12.80;99.90;;;;;;5038440;28;20430;-75
2022/11/16 12:36:58;;;;;;;5.93;0.20;;;13.00;99.90;;;;;;5056794;28;20032;-76
2022/11/16 12:39:34;;;;;;;3.65;0.20;;;13.00;99.90;;;;;;5038333;28;20399;-75
2022/11/16 12:42:22;;;;;;;2.13;0.05;;;13.20;99.90;;;;;;5038399;28;20036;-75
2022/11/16 12:45:00;;;;;;;0.75;0.00;;;13.10;99.90;;;;;;5056527;28;20022;-75
2022/11/16 12:47:54;;;;;;;3.78;0.22;;;13.20;99.90;;;;;;5056226;28;20024;-73
2022/11/16 12:50:48;;;;;;;10.50;0.25;;;13.30;99.90;;;;;;5056630;28;20021;-74
2022/11/16 12:53:39;;;;;;;1.75;0.25;;;13.40;99.90;;;;;;5055934;28;20021;-74
2022/11/16 12:56:31;;;;;;;4.35;0.47;;;13.40;99.90;;;;;;5037963;28;20033;-74
2022/11/16 12:59:34;;;;;;;0.98;0.00;;;13.50;99.90;;;;;;5038086;28;20479;-74
2022/11/16 13:02:36;;;;;;;3.53;0.13;;;13.60;99.90;;;;;;5056035;28;20033;-75
2022/11/16 13:05:12;;;;;;;1.48;0.10;;;13.70;99.90;;;;;;5056068;28;20116;-75
2022/11/16 13:07:51;;;;;;;5.35;0.20;;;13.90;99.90;;;;;;5038492;28;20017;-75
2022/11/16 13:10:26;;;;;;;2.53;0.20;;;13.90;99.90;;;;;;5055634;28;20085;-75
2022/11/16 13:12:57;;;;;;;6.05;0.52;;;13.90;99.90;;;;;;5037819;28;20025;-76
2022/11/16 13:15:32;;;;;;;2.13;0.00;;;13.70;99.90;;;;;;5055337;28;20025;-76
2022/11/16 13:18:02;;;;;;;4.78;0.85;;;13.50;99.90;;;;;;5055625;28;20029;-76
2022/11/16 13:21:10;;;;;;;4.45;0.30;;;13.40;99.90;;;;;;5037721;28;20104;-74
2022/11/16 13:23:48;;;;;;;2.22;0.03;;;13.40;99.90;;;;;;5056157;28;20024;-76
2022/11/16 13:26:34;;;;;;;4.45;0.35;;;13.30;99.90;;;;;;5037686;28;20025;-75
2022/11/16 13:29:21;;;;;;;4.57;0.00;;;13.10;99.90;;;;;;5055829;28;20036;-74
2022/11/16 13:31:56;;;;;;;4.25;0.20;;;13.10;99.90;;;;;;5037442;28;20056;-75
2022/11/16 13:34:30;;;;;;;4.32;0.10;;;12.90;99.90;;;;;;5055281;28;20035;-74
2022/11/16 13:36:56;;;;;;;6.32;0.95;;;12.90;99.90;;;;;;5055136;28;20368;-74
2022/11/16 13:39:57;;;;;;;1.65;0.47;;;12.70;99.90;;;;;;5054204;28;20028;-74
2022/11/16 13:42:23;;;;;;;2.13;0.20;;;12.60;99.90;;;;;;5032838;28;20036;-74
2022/11/16 13:44:49;;;;;;;4.10;0.30;;;12.50;99.90;;;;;;5055410;28;20025;-74
2022/11/16 13:47:24;;;;;;;2.30;0.00;;;12.40;99.90;;;;;;5055027;28;20031;-74
2022/11/16 13:50:18;;;;;;;1.77;0.03;;;12.40;99.90;;;;;;5055047;28;20021;-73
2022/11/16 13:52:50;;;;;;;3.72;0.35;;;12.40;99.90;;;;;;5034329;28;20420;-74
2022/11/16 13:55:40;;;;;;;4.13;0.00;;;12.40;99.90;;;;;;5036886;28;20071;-74
2022/11/16 13:58:08;;;;;;;4.28;0.45;;;12.30;99.90;;;;;;5036887;28;20025;-73
2022/11/16 14:00:39;;;;;;;4.65;0.40;;;12.60;99.90;;;;;;5036965;28;20430;-73